Luke AFB, Arizona
Current Conditions -  °F | °C
As of 7:58 PM on Friday 21 Nov 2014 (Local Time) from KLUF Reporting Station
Clear Clear  
Wind Chill: 55°   Ceiling: Unl
Heat Index: 55°   Visibility: 10mi
Dew Point: 32°   Wind: 7mph
Humidity: 41%   Direction: 350°N
Pressure: 29.92"   Gusts: NA
Location:  33.53°N, 112.37°W
Report Text: KLUF 220258Z AUTO 35006KT 10SM CLR 13/00 A2992 RMK AO2 SLP130 52019
Loading
Personal Weather Stations






























Interactive Weather Map New forecast layout! Learn more

10-Day Weather Forecast

Advertisements
Track Severe Weather on mobile